sensor_id;sensor_type;location;lat;lon;timestamp;temperature;humidity
63899;HTU21D;50070;-32.946;-60.652;2022-09-30T00:00:34;19.36;37.88
63899;HTU21D;50070;-32.946;-60.652;2022-09-30T00:03:00;19.06;38.53
63899;HTU21D;50070;-32.946;-60.652;2022-09-30T00:05:30;19.14;38.67
63899;HTU21D;50070;-32.946;-60.652;2022-09-30T00:07:57;19.10;39.03
63899;HTU21D;50070;-32.946;-60.652;2022-09-30T00:10:23;18.80;40.17
63899;HTU21D;50070;-32.946;-60.652;2022-09-30T00:12:51;18.95;40.01
63899;HTU21D;50070;-32.946;-60.652;2022-09-30T00:15:19;19.06;40.04
63899;HTU21D;50070;-32.946;-60.652;2022-09-30T00:17:45;18.97;40.38
63899;HTU21D;50070;-32.946;-60.652;2022-09-30T00:20:12;18.93;40.65
63899;HTU21D;50070;-32.946;-60.652;2022-09-30T00:22:39;18.93;40.73
63899;HTU21D;50070;-32.946;-60.652;2022-09-30T00:25:06;18.92;40.90
63899;HTU21D;50070;-32.946;-60.652;2022-09-30T00:27:33;18.61;41.69
63899;HTU21D;50070;-32.946;-60.652;2022-09-30T00:30:00;18.63;41.67
63899;HTU21D;50070;-32.946;-60.652;2022-09-30T00:32:27;18.70;41.49
63899;HTU21D;50070;-32.946;-60.652;2022-09-30T00:34:53;18.76;41.42
63899;HTU21D;50070;-32.946;-60.652;2022-09-30T00:37:20;18.79;41.30
63899;HTU21D;50070;-32.946;-60.652;2022-09-30T00:39:46;18.79;41.23
63899;HTU21D;50070;-32.946;-60.652;2022-09-30T00:42:14;18.65;41.52
63899;HTU21D;50070;-32.946;-60.652;2022-09-30T00:44:55;18.72;41.29
63899;HTU21D;50070;-32.946;-60.652;2022-09-30T00:47:48;18.44;41.89
63899;HTU21D;50070;-32.946;-60.652;2022-09-30T00:53:20;18.44;42.01
63899;HTU21D;50070;-32.946;-60.652;2022-09-30T00:56:01;18.43;42.10
63899;HTU21D;50070;-32.946;-60.652;2022-09-30T01:01:02;18.27;42.87
63899;HTU21D;50070;-32.946;-60.652;2022-09-30T01:03:34;18.48;42.30
63899;HTU21D;50070;-32.946;-60.652;2022-09-30T01:06:02;18.19;42.87
63899;HTU21D;50070;-32.946;-60.652;2022-09-30T01:08:30;18.34;42.61
63899;HTU21D;50070;-32.946;-60.652;2022-09-30T01:10:58;18.10;43.13
63899;HTU21D;50070;-32.946;-60.652;2022-09-30T01:13:26;17.95;43.57
63899;HTU21D;50070;-32.946;-60.652;2022-09-30T01:35:19;18.08;43.77
63899;HTU21D;50070;-32.946;-60.652;2022-09-30T01:38:11;17.97;43.93
63899;HTU21D;50070;-32.946;-60.652;2022-09-30T01:43:10;17.87;44.51
63899;HTU21D;50070;-32.946;-60.652;2022-09-30T01:51:54;18.00;44.09
63899;HTU21D;50070;-32.946;-60.652;2022-09-30T01:54:40;17.66;44.96
63899;HTU21D;50070;-32.946;-60.652;2022-09-30T01:57:18;17.58;45.04
63899;HTU21D;50070;-32.946;-60.652;2022-09-30T02:00:07;17.60;45.07
63899;HTU21D;50070;-32.946;-60.652;2022-09-30T02:02:59;17.79;44.59
63899;HTU21D;50070;-32.946;-60.652;2022-09-30T02:05:55;17.75;44.63
63899;HTU21D;50070;-32.946;-60.652;2022-09-30T02:11:01;17.50;44.96
63899;HTU21D;50070;-32.946;-60.652;2022-09-30T02:13:36;17.59;44.67
63899;HTU21D;50070;-32.946;-60.652;2022-09-30T02:16:13;17.81;44.25
63899;HTU21D;50070;-32.946;-60.652;2022-09-30T02:19:37;17.60;44.79
63899;HTU21D;50070;-32.946;-60.652;2022-09-30T02:22:07;17.58;44.82
63899;HTU21D;50070;-32.946;-60.652;2022-09-30T02:24:37;17.64;44.78
63899;HTU21D;50070;-32.946;-60.652;2022-09-30T02:27:09;17.52;44.99
63899;HTU21D;50070;-32.946;-60.652;2022-09-30T02:29:46;17.37;45.33
63899;HTU21D;50070;-32.946;-60.652;2022-09-30T02:32:38;17.31;45.86
63899;HTU21D;50070;-32.946;-60.652;2022-09-30T02:35:13;17.54;45.15
63899;HTU21D;50070;-32.946;-60.652;2022-09-30T02:37:48;17.40;45.54
63899;HTU21D;50070;-32.946;-60.652;2022-09-30T02:40:40;17.50;45.41
63899;HTU21D;50070;-32.946;-60.652;2022-09-30T02:43:09;17.20;46.29
63899;HTU21D;50070;-32.946;-60.652;2022-09-30T02:45:48;17.01;46.81
63899;HTU21D;50070;-32.946;-60.652;2022-09-30T02:51:21;17.20;46.41
63899;HTU21D;50070;-32.946;-60.652;2022-09-30T02:53:56;17.37;45.96
63899;HTU21D;50070;-32.946;-60.652;2022-09-30T02:59:00;17.19;46.52
63899;HTU21D;50070;-32.946;-60.652;2022-09-30T03:01:27;16.86;47.44
63899;HTU21D;50070;-32.946;-60.652;2022-09-30T03:04:02;17.06;47.03
63899;HTU21D;50070;-32.946;-60.652;2022-09-30T03:06:30;16.99;47.09
63899;HTU21D;50070;-32.946;-60.652;2022-09-30T03:08:56;16.88;47.60
63899;HTU21D;50070;-32.946;-60.652;2022-09-30T03:11:25;17.00;47.29
63899;HTU21D;50070;-32.946;-60.652;2022-09-30T03:20:30;16.95;47.31
63899;HTU21D;50070;-32.946;-60.652;2022-09-30T03:23:28;16.89;47.70
63899;HTU21D;50070;-32.946;-60.652;2022-09-30T03:26:17;17.04;47.28
63899;HTU21D;50070;-32.946;-60.652;2022-09-30T03:31:51;16.90;47.79
63899;HTU21D;50070;-32.946;-60.652;2022-09-30T03:39:56;16.62;48.67
63899;HTU21D;50070;-32.946;-60.652;2022-09-30T03:45:00;16.98;47.83
63899;HTU21D;50070;-32.946;-60.652;2022-09-30T03:47:30;16.92;48.04
63899;HTU21D;50070;-32.946;-60.652;2022-09-30T03:49:59;16.82;48.27
63899;HTU21D;50070;-32.946;-60.652;2022-09-30T03:52:30;16.86;48.18
63899;HTU21D;50070;-32.946;-60.652;2022-09-30T03:54:59;16.73;48.70
63899;HTU21D;50070;-32.946;-60.652;2022-09-30T03:57:28;16.72;48.74
63899;HTU21D;50070;-32.946;-60.652;2022-09-30T03:59:56;16.82;48.42
63899;HTU21D;50070;-32.946;-60.652;2022-09-30T04:02:23;16.45;49.61
63899;HTU21D;50070;-32.946;-60.652;2022-09-30T04:04:50;16.63;49.07
63899;HTU21D;50070;-32.946;-60.652;2022-09-30T04:07:17;16.44;49.76
63899;HTU21D;50070;-32.946;-60.652;2022-09-30T04:09:44;16.55;49.40
63899;HTU21D;50070;-32.946;-60.652;2022-09-30T04:12:10;16.26;50.28
63899;HTU21D;50070;-32.946;-60.652;2022-09-30T04:14:37;16.36;50.05
63899;HTU21D;50070;-32.946;-60.652;2022-09-30T04:17:04;16.39;50.05
63899;HTU21D;50070;-32.946;-60.652;2022-09-30T04:19:32;16.39;50.13
63899;HTU21D;50070;-32.946;-60.652;2022-09-30T04:22:03;16.35;50.30
63899;HTU21D;50070;-32.946;-60.652;2022-09-30T04:24:29;16.43;50.14
63899;HTU21D;50070;-32.946;-60.652;2022-09-30T04:26:56;16.43;50.18
63899;HTU21D;50070;-32.946;-60.652;2022-09-30T04:29:23;16.00;51.60
63899;HTU21D;50070;-32.946;-60.652;2022-09-30T04:31:49;16.22;50.98
63899;HTU21D;50070;-32.946;-60.652;2022-09-30T04:34:16;16.08;51.14
63899;HTU21D;50070;-32.946;-60.652;2022-09-30T04:36:43;15.82;52.04
63899;HTU21D;50070;-32.946;-60.652;2022-09-30T04:39:09;15.90;52.00
63899;HTU21D;50070;-32.946;-60.652;2022-09-30T04:41:36;16.24;50.98
63899;HTU21D;50070;-32.946;-60.652;2022-09-30T04:44:03;15.91;51.97
63899;HTU21D;50070;-32.946;-60.652;2022-09-30T04:46:33;15.96;51.76
63899;HTU21D;50070;-32.946;-60.652;2022-09-30T04:49:05;16.05;51.56
63899;HTU21D;50070;-32.946;-60.652;2022-09-30T04:51:32;16.01;51.74
63899;HTU21D;50070;-32.946;-60.652;2022-09-30T04:53:59;16.01;51.86
63899;HTU21D;50070;-32.946;-60.652;2022-09-30T04:56:25;16.03;51.81
63899;HTU21D;50070;-32.946;-60.652;2022-09-30T04:58:52;15.96;52.07
63899;HTU21D;50070;-32.946;-60.652;2022-09-30T05:01:19;15.90;52.24
63899;HTU21D;50070;-32.946;-60.652;2022-09-30T05:03:46;16.12;51.84
63899;HTU21D;50070;-32.946;-60.652;2022-09-30T05:06:14;15.95;52.17
63899;HTU21D;50070;-32.946;-60.652;2022-09-30T05:08:41;16.05;52.00
63899;HTU21D;50070;-32.946;-60.652;2022-09-30T05:11:14;15.85;52.59
63899;HTU21D;50070;-32.946;-60.652;2022-09-30T05:13:43;15.91;52.46
63899;HTU21D;50070;-32.946;-60.652;2022-09-30T05:16:10;15.96;52.33
63899;HTU21D;50070;-32.946;-60.652;2022-09-30T05:18:37;15.74;53.09
63899;HTU21D;50070;-32.946;-60.652;2022-09-30T05:21:12;15.84;52.86
63899;HTU21D;50070;-32.946;-60.652;2022-09-30T05:23:38;16.04;52.30
63899;HTU21D;50070;-32.946;-60.652;2022-09-30T05:26:06;16.12;51.88
63899;HTU21D;50070;-32.946;-60.652;2022-09-30T05:28:33;16.10;52.07
63899;HTU21D;50070;-32.946;-60.652;2022-09-30T05:31:01;15.75;53.36
63899;HTU21D;50070;-32.946;-60.652;2022-09-30T05:33:31;16.07;52.36
63899;HTU21D;50070;-32.946;-60.652;2022-09-30T05:35:59;16.05;52.56
63899;HTU21D;50070;-32.946;-60.652;2022-09-30T05:38:27;16.17;52.14
63899;HTU21D;50070;-32.946;-60.652;2022-09-30T05:40:57;15.73;53.52
63899;HTU21D;50070;-32.946;-60.652;2022-09-30T05:43:24;16.06;52.61
63899;HTU21D;50070;-32.946;-60.652;2022-09-30T05:45:57;16.01;52.75
63899;HTU21D;50070;-32.946;-60.652;2022-09-30T05:48:24;15.82;53.43
63899;HTU21D;50070;-32.946;-60.652;2022-09-30T05:50:55;15.83;53.43
63899;HTU21D;50070;-32.946;-60.652;2022-09-30T05:53:22;15.82;53.55
63899;HTU21D;50070;-32.946;-60.652;2022-09-30T05:55:50;15.96;52.99
63899;HTU21D;50070;-32.946;-60.652;2022-09-30T05:58:17;15.60;53.47
63899;HTU21D;50070;-32.946;-60.652;2022-09-30T06:00:45;15.75;53.33
63899;HTU21D;50070;-32.946;-60.652;2022-09-30T06:03:12;15.84;52.89
63899;HTU21D;50070;-32.946;-60.652;2022-09-30T06:05:39;15.53;53.83
63899;HTU21D;50070;-32.946;-60.652;2022-09-30T06:08:06;15.71;53.36
63899;HTU21D;50070;-32.946;-60.652;2022-09-30T06:10:34;15.58;53.91
63899;HTU21D;50070;-32.946;-60.652;2022-09-30T06:13:04;15.67;53.65
63899;HTU21D;50070;-32.946;-60.652;2022-09-30T06:15:32;15.47;54.34
63899;HTU21D;50070;-32.946;-60.652;2022-09-30T06:17:59;15.75;53.46
63899;HTU21D;50070;-32.946;-60.652;2022-09-30T06:20:25;15.76;53.56
63899;HTU21D;50070;-32.946;-60.652;2022-09-30T06:22:52;15.62;54.06
63899;HTU21D;50070;-32.946;-60.652;2022-09-30T06:25:19;15.66;54.05
63899;HTU21D;50070;-32.946;-60.652;2022-09-30T06:27:47;15.72;53.86
63899;HTU21D;50070;-32.946;-60.652;2022-09-30T06:30:14;15.91;53.27
63899;HTU21D;50070;-32.946;-60.652;2022-09-30T06:32:40;15.84;53.40
63899;HTU21D;50070;-32.946;-60.652;2022-09-30T06:35:07;15.74;53.63
63899;HTU21D;50070;-32.946;-60.652;2022-09-30T06:37:35;15.78;53.39
63899;HTU21D;50070;-32.946;-60.652;2022-09-30T06:40:04;15.93;52.98
63899;HTU21D;50070;-32.946;-60.652;2022-09-30T06:42:31;15.86;52.97
63899;HTU21D;50070;-32.946;-60.652;2022-09-30T06:44:58;15.88;53.06
63899;HTU21D;50070;-32.946;-60.652;2022-09-30T06:47:25;15.85;53.02
63899;HTU21D;50070;-32.946;-60.652;2022-09-30T06:49:52;15.83;53.17
63899;HTU21D;50070;-32.946;-60.652;2022-09-30T06:52:23;15.52;54.32
63899;HTU21D;50070;-32.946;-60.652;2022-09-30T06:54:50;15.83;53.27
63899;HTU21D;50070;-32.946;-60.652;2022-09-30T06:57:17;15.93;52.98
63899;HTU21D;50070;-32.946;-60.652;2022-09-30T06:59:48;15.71;53.73
63899;HTU21D;50070;-32.946;-60.652;2022-09-30T07:02:15;15.78;53.59
63899;HTU21D;50070;-32.946;-60.652;2022-09-30T07:04:42;15.84;53.42
63899;HTU21D;50070;-32.946;-60.652;2022-09-30T07:07:09;15.89;53.34
63899;HTU21D;50070;-32.946;-60.652;2022-09-30T07:09:35;15.68;54.05
63899;HTU21D;50070;-32.946;-60.652;2022-09-30T07:12:02;16.02;52.91
63899;HTU21D;50070;-32.946;-60.652;2022-09-30T07:14:32;15.87;53.38
63899;HTU21D;50070;-32.946;-60.652;2022-09-30T07:17:00;15.89;53.55
63899;HTU21D;50070;-32.946;-60.652;2022-09-30T07:19:29;15.95;53.23
63899;HTU21D;50070;-32.946;-60.652;2022-09-30T07:21:57;15.30;55.17
63899;HTU21D;50070;-32.946;-60.652;2022-09-30T07:24:43;15.70;54.01
63899;HTU21D;50070;-32.946;-60.652;2022-09-30T07:27:10;15.72;54.00
63899;HTU21D;50070;-32.946;-60.652;2022-09-30T07:29:39;15.80;53.79
63899;HTU21D;50070;-32.946;-60.652;2022-09-30T07:32:06;15.92;53.31
63899;HTU21D;50070;-32.946;-60.652;2022-09-30T07:34:34;15.42;54.89
63899;HTU21D;50070;-32.946;-60.652;2022-09-30T07:37:02;15.42;54.98
63899;HTU21D;50070;-32.946;-60.652;2022-09-30T07:39:29;15.58;54.63
63899;HTU21D;50070;-32.946;-60.652;2022-09-30T07:41:56;15.68;54.20
63899;HTU21D;50070;-32.946;-60.652;2022-09-30T07:44:23;15.70;54.10
63899;HTU21D;50070;-32.946;-60.652;2022-09-30T07:46:51;15.70;54.30
63899;HTU21D;50070;-32.946;-60.652;2022-09-30T07:49:19;15.59;54.57
63899;HTU21D;50070;-32.946;-60.652;2022-09-30T07:51:52;15.69;54.37
63899;HTU21D;50070;-32.946;-60.652;2022-09-30T07:54:22;15.42;55.13
63899;HTU21D;50070;-32.946;-60.652;2022-09-30T07:56:50;15.71;54.36
63899;HTU21D;50070;-32.946;-60.652;2022-09-30T07:59:18;15.45;55.32
63899;HTU21D;50070;-32.946;-60.652;2022-09-30T08:01:45;15.61;54.70
63899;HTU21D;50070;-32.946;-60.652;2022-09-30T08:04:13;15.57;54.68
63899;HTU21D;50070;-32.946;-60.652;2022-09-30T08:06:43;15.27;56.01
63899;HTU21D;50070;-32.946;-60.652;2022-09-30T08:09:12;15.34;55.71
63899;HTU21D;50070;-32.946;-60.652;2022-09-30T08:11:42;14.86;57.33
63899;HTU21D;50070;-32.946;-60.652;2022-09-30T08:14:21;14.57;58.60
63899;HTU21D;50070;-32.946;-60.652;2022-09-30T08:16:48;15.11;56.72
63899;HTU21D;50070;-32.946;-60.652;2022-09-30T08:19:19;15.00;56.94
63899;HTU21D;50070;-32.946;-60.652;2022-09-30T08:21:47;15.22;56.31
63899;HTU21D;50070;-32.946;-60.652;2022-09-30T08:24:14;14.75;57.81
63899;HTU21D;50070;-32.946;-60.652;2022-09-30T08:26:42;15.02;56.85
63899;HTU21D;50070;-32.946;-60.652;2022-09-30T08:29:09;14.93;56.91
63899;HTU21D;50070;-32.946;-60.652;2022-09-30T08:31:39;14.63;58.16
63899;HTU21D;50070;-32.946;-60.652;2022-09-30T08:34:05;14.78;57.73
63899;HTU21D;50070;-32.946;-60.652;2022-09-30T08:36:32;14.45;58.81
63899;HTU21D;50070;-32.946;-60.652;2022-09-30T08:38:59;15.02;56.95
63899;HTU21D;50070;-32.946;-60.652;2022-09-30T08:44:45;15.00;57.03
63899;HTU21D;50070;-32.946;-60.652;2022-09-30T08:47:38;14.95;57.16
63899;HTU21D;50070;-32.946;-60.652;2022-09-30T08:50:29;14.88;57.35
63899;HTU21D;50070;-32.946;-60.652;2022-09-30T08:53:01;14.97;57.22
63899;HTU21D;50070;-32.946;-60.652;2022-09-30T08:55:42;14.66;58.04
63899;HTU21D;50070;-32.946;-60.652;2022-09-30T08:58:27;14.43;58.76
63899;HTU21D;50070;-32.946;-60.652;2022-09-30T09:01:00;14.81;57.37
63899;HTU21D;50070;-32.946;-60.652;2022-09-30T09:03:29;14.93;57.06
63899;HTU21D;50070;-32.946;-60.652;2022-09-30T09:09:36;14.82;57.19
63899;HTU21D;50070;-32.946;-60.652;2022-09-30T09:12:04;14.78;57.42
63899;HTU21D;50070;-32.946;-60.652;2022-09-30T09:17:19;14.96;56.93
63899;HTU21D;50070;-32.946;-60.652;2022-09-30T09:20:12;14.85;57.40
63899;HTU21D;50070;-32.946;-60.652;2022-09-30T09:22:39;14.96;57.11
63899;HTU21D;50070;-32.946;-60.652;2022-09-30T09:25:13;14.73;57.96
63899;HTU21D;50070;-32.946;-60.652;2022-09-30T09:27:57;14.60;58.58
63899;HTU21D;50070;-32.946;-60.652;2022-09-30T09:30:29;14.21;60.16
63899;HTU21D;50070;-32.946;-60.652;2022-09-30T09:33:34;14.36;59.87
63899;HTU21D;50070;-32.946;-60.652;2022-09-30T09:36:17;14.53;59.46
63899;HTU21D;50070;-32.946;-60.652;2022-09-30T09:47:09;14.43;60.46
63899;HTU21D;50070;-32.946;-60.652;2022-09-30T09:50:11;14.48;60.52
63899;HTU21D;50070;-32.946;-60.652;2022-09-30T09:52:56;14.55;60.40
63899;HTU21D;50070;-32.946;-60.652;2022-09-30T09:55:26;14.24;61.54
63899;HTU21D;50070;-32.946;-60.652;2022-09-30T09:58:10;13.99;62.52
63899;HTU21D;50070;-32.946;-60.652;2022-09-30T10:00:42;14.23;61.53
63899;HTU21D;50070;-32.946;-60.652;2022-09-30T10:03:20;14.09;61.83
63899;HTU21D;50070;-32.946;-60.652;2022-09-30T10:06:08;14.38;60.74
63899;HTU21D;50070;-32.946;-60.652;2022-09-30T10:08:37;14.22;61.40
63899;HTU21D;50070;-32.946;-60.652;2022-09-30T10:11:07;14.44;60.25
63899;HTU21D;50070;-32.946;-60.652;2022-09-30T10:13:44;14.51;60.03
63899;HTU21D;50070;-32.946;-60.652;2022-09-30T10:16:39;14.29;60.99
63899;HTU21D;50070;-32.946;-60.652;2022-09-30T10:19:23;14.06;61.71
63899;HTU21D;50070;-32.946;-60.652;2022-09-30T10:21:50;14.12;61.83
63899;HTU21D;50070;-32.946;-60.652;2022-09-30T10:24:38;14.24;61.79
63899;HTU21D;50070;-32.946;-60.652;2022-09-30T10:27:29;14.40;61.08
63899;HTU21D;50070;-32.946;-60.652;2022-09-30T10:29:56;14.57;60.28
63899;HTU21D;50070;-32.946;-60.652;2022-09-30T10:32:24;14.26;61.60
63899;HTU21D;50070;-32.946;-60.652;2022-09-30T10:35:02;14.54;60.55
63899;HTU21D;50070;-32.946;-60.652;2022-09-30T10:37:31;14.57;60.35
63899;HTU21D;50070;-32.946;-60.652;2022-09-30T10:40:02;14.01;62.88
63899;HTU21D;50070;-32.946;-60.652;2022-09-30T10:42:37;13.90;62.87
63899;HTU21D;50070;-32.946;-60.652;2022-09-30T10:45:07;13.89;62.94
63899;HTU21D;50070;-32.946;-60.652;2022-09-30T10:47:48;14.41;61.60
63899;HTU21D;50070;-32.946;-60.652;2022-09-30T10:50:19;14.33;61.45
63899;HTU21D;50070;-32.946;-60.652;2022-09-30T10:52:58;14.54;60.89
63899;HTU21D;50070;-32.946;-60.652;2022-09-30T10:55:43;14.53;61.04
63899;HTU21D;50070;-32.946;-60.652;2022-09-30T11:01:31;14.50;61.48
63899;HTU21D;50070;-32.946;-60.652;2022-09-30T11:06:38;14.53;61.41
63899;HTU21D;50070;-32.946;-60.652;2022-09-30T11:09:19;14.55;61.84
63899;HTU21D;50070;-32.946;-60.652;2022-09-30T11:11:57;14.53;61.81
63899;HTU21D;50070;-32.946;-60.652;2022-09-30T11:19:38;15.21;59.54
63899;HTU21D;50070;-32.946;-60.652;2022-09-30T11:24:52;15.54;58.34
63899;HTU21D;50070;-32.946;-60.652;2022-09-30T11:41:27;16.10;56.77
63899;HTU21D;50070;-32.946;-60.652;2022-09-30T11:47:06;16.25;56.63
63899;HTU21D;50070;-32.946;-60.652;2022-09-30T11:49:48;16.85;55.34
63899;HTU21D;50070;-32.946;-60.652;2022-09-30T12:00:34;16.74;55.24
63899;HTU21D;50070;-32.946;-60.652;2022-09-30T12:03:33;17.03;54.57
63899;HTU21D;50070;-32.946;-60.652;2022-09-30T12:06:27;16.66;55.63
63899;HTU21D;50070;-32.946;-60.652;2022-09-30T12:09:07;17.09;54.52
63899;HTU21D;50070;-32.946;-60.652;2022-09-30T12:11:57;16.69;55.84
63899;HTU21D;50070;-32.946;-60.652;2022-09-30T12:14:30;16.92;55.27
63899;HTU21D;50070;-32.946;-60.652;2022-09-30T12:16:59;16.93;55.19
63899;HTU21D;50070;-32.946;-60.652;2022-09-30T12:19:46;16.85;55.32
63899;HTU21D;50070;-32.946;-60.652;2022-09-30T12:22:17;17.09;54.93
63899;HTU21D;50070;-32.946;-60.652;2022-09-30T12:24:46;17.33;54.19
63899;HTU21D;50070;-32.946;-60.652;2022-09-30T12:27:22;17.15;54.26
63899;HTU21D;50070;-32.946;-60.652;2022-09-30T12:30:11;17.53;53.81
63899;HTU21D;50070;-32.946;-60.652;2022-09-30T12:49:05;18.11;51.51
63899;HTU21D;50070;-32.946;-60.652;2022-09-30T12:51:35;19.03;49.19
63899;HTU21D;50070;-32.946;-60.652;2022-09-30T12:54:30;19.58;47.60
63899;HTU21D;50070;-32.946;-60.652;2022-09-30T12:57:00;19.12;48.82
63899;HTU21D;50070;-32.946;-60.652;2022-09-30T12:59:47;19.59;47.48
63899;HTU21D;50070;-32.946;-60.652;2022-09-30T13:02:39;20.27;45.77
63899;HTU21D;50070;-32.946;-60.652;2022-09-30T13:15:37;20.13;46.43
63899;HTU21D;50070;-32.946;-60.652;2022-09-30T13:23:47;20.87;45.07
63899;HTU21D;50070;-32.946;-60.652;2022-09-30T13:28:51;22.49;40.91
63899;HTU21D;50070;-32.946;-60.652;2022-09-30T13:31:20;22.32;41.42
63899;HTU21D;50070;-32.946;-60.652;2022-09-30T13:36:40;24.80;36.14
63899;HTU21D;50070;-32.946;-60.652;2022-09-30T13:42:27;24.86;35.74
63899;HTU21D;50070;-32.946;-60.652;2022-09-30T13:50:28;26.68;32.47
63899;HTU21D;50070;-32.946;-60.652;2022-09-30T13:53:00;25.98;33.62
63899;HTU21D;50070;-32.946;-60.652;2022-09-30T13:55:44;26.97;31.90
63899;HTU21D;50070;-32.946;-60.652;2022-09-30T13:58:49;26.99;31.83
63899;HTU21D;50070;-32.946;-60.652;2022-09-30T14:17:49;29.00;27.78
63899;HTU21D;50070;-32.946;-60.652;2022-09-30T14:23:12;25.84;33.50
63899;HTU21D;50070;-32.946;-60.652;2022-09-30T14:29:06;26.41;32.16
63899;HTU21D;50070;-32.946;-60.652;2022-09-30T14:31:29;24.83;35.07
63899;HTU21D;50070;-32.946;-60.652;2022-09-30T14:33:57;25.29;34.22
63899;HTU21D;50070;-32.946;-60.652;2022-09-30T14:36:24;25.45;33.76
63899;HTU21D;50070;-32.946;-60.652;2022-09-30T14:38:57;25.54;33.22
63899;HTU21D;50070;-32.946;-60.652;2022-09-30T14:41:26;25.81;32.72
63899;HTU21D;50070;-32.946;-60.652;2022-09-30T14:43:59;25.22;33.60
63899;HTU21D;50070;-32.946;-60.652;2022-09-30T14:46:37;24.92;34.31
63899;HTU21D;50070;-32.946;-60.652;2022-09-30T14:49:10;24.26;35.30
63899;HTU21D;50070;-32.946;-60.652;2022-09-30T14:51:45;24.64;34.14
63899;HTU21D;50070;-32.946;-60.652;2022-09-30T14:54:21;26.01;31.42
63899;HTU21D;50070;-32.946;-60.652;2022-09-30T14:56:49;25.67;31.32
63899;HTU21D;50070;-32.946;-60.652;2022-09-30T14:59:24;25.95;30.76
63899;HTU21D;50070;-32.946;-60.652;2022-09-30T15:02:01;25.94;31.16
63899;HTU21D;50070;-32.946;-60.652;2022-09-30T15:04:34;26.06;31.10
63899;HTU21D;50070;-32.946;-60.652;2022-09-30T15:07:04;26.09;31.55
63899;HTU21D;50070;-32.946;-60.652;2022-09-30T15:09:40;26.38;30.58
63899;HTU21D;50070;-32.946;-60.652;2022-09-30T15:12:17;26.80;29.21
63899;HTU21D;50070;-32.946;-60.652;2022-09-30T15:14:50;26.46;29.80
63899;HTU21D;50070;-32.946;-60.652;2022-09-30T15:17:24;26.17;30.41
63899;HTU21D;50070;-32.946;-60.652;2022-09-30T15:19:53;25.45;31.73
63899;HTU21D;50070;-32.946;-60.652;2022-09-30T15:22:23;26.08;30.51
63899;HTU21D;50070;-32.946;-60.652;2022-09-30T15:24:52;26.19;30.13
63899;HTU21D;50070;-32.946;-60.652;2022-09-30T15:27:29;25.78;30.90
63899;HTU21D;50070;-32.946;-60.652;2022-09-30T15:29:58;26.34;30.16
63899;HTU21D;50070;-32.946;-60.652;2022-09-30T15:32:33;24.83;32.73
63899;HTU21D;50070;-32.946;-60.652;2022-09-30T15:35:13;25.34;31.91
63899;HTU21D;50070;-32.946;-60.652;2022-09-30T15:37:41;25.05;32.38
63899;HTU21D;50070;-32.946;-60.652;2022-09-30T15:40:20;25.48;31.67
63899;HTU21D;50070;-32.946;-60.652;2022-09-30T15:43:08;25.81;30.72
63899;HTU21D;50070;-32.946;-60.652;2022-09-30T15:45:38;26.06;29.64
63899;HTU21D;50070;-32.946;-60.652;2022-09-30T15:50:51;26.63;28.59
63899;HTU21D;50070;-32.946;-60.652;2022-09-30T15:53:24;26.82;28.47
63899;HTU21D;50070;-32.946;-60.652;2022-09-30T15:56:36;26.62;28.97
63899;HTU21D;50070;-32.946;-60.652;2022-09-30T15:59:05;25.86;30.01
63899;HTU21D;50070;-32.946;-60.652;2022-09-30T16:04:07;26.18;29.57
63899;HTU21D;50070;-32.946;-60.652;2022-09-30T16:06:52;24.98;31.16
63899;HTU21D;50070;-32.946;-60.652;2022-09-30T16:09:30;25.12;30.86
63899;HTU21D;50070;-32.946;-60.652;2022-09-30T16:15:09;25.56;30.15
63899;HTU21D;50070;-32.946;-60.652;2022-09-30T16:17:44;26.03;28.93
63899;HTU21D;50070;-32.946;-60.652;2022-09-30T16:27:43;26.34;28.33
63899;HTU21D;50070;-32.946;-60.652;2022-09-30T16:30:18;26.01;28.51
63899;HTU21D;50070;-32.946;-60.652;2022-09-30T16:32:48;26.32;28.18
63899;HTU21D;50070;-32.946;-60.652;2022-09-30T16:35:21;26.76;27.42
63899;HTU21D;50070;-32.946;-60.652;2022-09-30T16:37:50;26.23;27.89
63899;HTU21D;50070;-32.946;-60.652;2022-09-30T16:40:24;26.39;27.66
63899;HTU21D;50070;-32.946;-60.652;2022-09-30T16:42:52;26.23;27.85
63899;HTU21D;50070;-32.946;-60.652;2022-09-30T16:45:25;26.24;27.93
63899;HTU21D;50070;-32.946;-60.652;2022-09-30T16:47:52;26.53;27.23
63899;HTU21D;50070;-32.946;-60.652;2022-09-30T16:52:51;26.32;27.28
63899;HTU21D;50070;-32.946;-60.652;2022-09-30T16:55:18;25.66;28.25
63899;HTU21D;50070;-32.946;-60.652;2022-09-30T16:57:44;25.90;28.03
63899;HTU21D;50070;-32.946;-60.652;2022-09-30T17:00:15;26.08;26.75
63899;HTU21D;50070;-32.946;-60.652;2022-09-30T17:02:46;26.64;25.23
63899;HTU21D;50070;-32.946;-60.652;2022-09-30T17:05:21;26.18;25.33
63899;HTU21D;50070;-32.946;-60.652;2022-09-30T17:08:12;26.15;25.42
63899;HTU21D;50070;-32.946;-60.652;2022-09-30T17:10:42;25.71;27.55
63899;HTU21D;50070;-32.946;-60.652;2022-09-30T17:13:09;26.21;26.44
63899;HTU21D;50070;-32.946;-60.652;2022-09-30T17:15:35;26.62;25.05
63899;HTU21D;50070;-32.946;-60.652;2022-09-30T17:18:06;26.37;25.63
63899;HTU21D;50070;-32.946;-60.652;2022-09-30T17:20:35;26.08;26.01
63899;HTU21D;50070;-32.946;-60.652;2022-09-30T17:23:02;25.99;26.67
63899;HTU21D;50070;-32.946;-60.652;2022-09-30T17:25:29;26.25;26.31
63899;HTU21D;50070;-32.946;-60.652;2022-09-30T17:27:55;26.11;26.46
63899;HTU21D;50070;-32.946;-60.652;2022-09-30T17:30:24;26.02;26.55
63899;HTU21D;50070;-32.946;-60.652;2022-09-30T17:32:52;26.90;25.58
63899;HTU21D;50070;-32.946;-60.652;2022-09-30T17:35:19;26.56;26.11
63899;HTU21D;50070;-32.946;-60.652;2022-09-30T17:37:47;26.80;25.46
63899;HTU21D;50070;-32.946;-60.652;2022-09-30T17:40:14;26.67;25.53
63899;HTU21D;50070;-32.946;-60.652;2022-09-30T17:42:59;26.72;26.01
63899;HTU21D;50070;-32.946;-60.652;2022-09-30T17:45:43;26.86;25.37
63899;HTU21D;50070;-32.946;-60.652;2022-09-30T17:48:12;26.84;24.88
63899;HTU21D;50070;-32.946;-60.652;2022-09-30T17:50:40;27.41;24.02
63899;HTU21D;50070;-32.946;-60.652;2022-09-30T17:53:13;27.32;23.79
63899;HTU21D;50070;-32.946;-60.652;2022-09-30T17:55:43;27.67;23.58
63899;HTU21D;50070;-32.946;-60.652;2022-09-30T17:58:12;27.72;23.82
63899;HTU21D;50070;-32.946;-60.652;2022-09-30T18:00:39;26.93;24.91
63899;HTU21D;50070;-32.946;-60.652;2022-09-30T18:03:07;27.21;24.59
63899;HTU21D;50070;-32.946;-60.652;2022-09-30T18:05:35;27.74;23.93
63899;HTU21D;50070;-32.946;-60.652;2022-09-30T18:08:02;27.67;23.77
63899;HTU21D;50070;-32.946;-60.652;2022-09-30T18:10:28;27.40;24.36
63899;HTU21D;50070;-32.946;-60.652;2022-09-30T18:12:55;26.72;25.41
63899;HTU21D;50070;-32.946;-60.652;2022-09-30T18:15:23;26.23;26.20
63899;HTU21D;50070;-32.946;-60.652;2022-09-30T18:17:52;26.71;25.83
63899;HTU21D;50070;-32.946;-60.652;2022-09-30T18:20:21;26.69;25.85
63899;HTU21D;50070;-32.946;-60.652;2022-09-30T18:22:48;27.23;25.17
63899;HTU21D;50070;-32.946;-60.652;2022-09-30T18:25:15;27.53;24.48
63899;HTU21D;50070;-32.946;-60.652;2022-09-30T18:27:59;26.89;24.78
63899;HTU21D;50070;-32.946;-60.652;2022-09-30T18:30:26;27.19;24.42